Time;durP1;ratioP1;P1;durP2;ratioP2;P2;SDS_P1;SDS_P2;PMS_P1;PMS_P2;Temp;Humidity;BMP_temperature;BMP_pressure;BME280_temperature;BME280_humidity;BME280_pressure;Samples;Min_cycle;Max_cycle;Signal;HPM_P1;HPM_P2
2022/01/20 00:01:50;;;;;;;47.90;31.38;;;;;;;5.93;62.57;99909.53;5094997;28;19966;-51
2022/01/20 00:23:16;;;;;;;48.13;32.10;;;;;;;5.76;62.96;99923.31;5094973;28;20405;-51
2022/01/20 00:28:19;;;;;;;57.72;33.97;;;;;;;5.89;62.36;99917.78;5094591;28;20455;-51
2022/01/20 00:31:10;;;;;;;46.90;32.08;;;;;;;5.87;62.71;99915.31;5094531;28;20020;-49
2022/01/20 00:33:43;;;;;;;49.67;32.55;;;;;;;5.91;62.73;99908.88;5093147;28;20024;-51
2022/01/20 00:38:38;;;;;;;50.67;33.33;;;;;;;5.87;63.14;99911.91;5094279;28;20056;-50
2022/01/20 00:41:09;;;;;;;52.97;33.60;;;;;;;5.76;62.44;99913.69;5094302;28;20161;-50
2022/01/20 00:43:35;;;;;;;49.53;32.88;;;;;;;5.56;62.51;99915.47;5094258;28;20028;-51
2022/01/20 00:46:01;;;;;;;53.97;32.53;;;;;;;5.44;63.47;99908.78;5094221;28;20505;-50
2022/01/20 00:48:26;;;;;;;52.78;32.90;;;;;;;5.52;63.35;99905.50;5094158;28;20028;-50
2022/01/20 00:50:52;;;;;;;51.45;32.53;;;;;;;5.59;63.55;99909.16;5094085;28;20504;-50
2022/01/20 00:53:18;;;;;;;53.67;33.05;;;;;;;5.64;62.86;99909.59;5094067;28;20095;-50
2022/01/20 00:55:43;;;;;;;48.03;33.20;;;;;;;5.56;62.82;99906.84;5092663;28;20444;-51
2022/01/20 00:58:09;;;;;;;51.65;35.47;;;;;;;5.52;63.55;99902.88;5093912;28;20394;-50
2022/01/20 01:00:36;;;;;;;50.92;32.90;;;;;;;5.57;63.41;99911.09;5093896;28;20371;-51
2022/01/20 01:03:02;;;;;;;53.50;33.42;;;;;;;5.49;62.98;99916.97;5093904;28;20024;-52
2022/01/20 01:05:28;;;;;;;46.28;31.88;;;;;;;5.30;63.39;99920.41;5093814;28;20027;-51
2022/01/20 01:07:56;;;;;;;52.33;33.38;;;;;;;5.30;63.34;99915.19;5093859;28;20059;-51
2022/01/20 01:10:28;;;;;;;51.42;35.05;;;;;;;5.32;63.75;99918.50;5093763;28;20032;-51
2022/01/20 01:13:03;;;;;;;49.47;31.98;;;;;;;5.41;63.35;99919.44;5093756;28;20034;-51
2022/01/20 01:15:35;;;;;;;57.35;34.50;;;;;;;5.47;63.71;99921.50;5093638;28;20032;-50
2022/01/20 01:23:38;;;;;;;48.22;33.78;;;;;;;5.68;63.22;99921.38;5093533;28;20030;-50
2022/01/20 01:26:19;;;;;;;47.00;33.33;;;;;;;5.71;62.93;99922.88;5093456;28;20031;-50
2022/01/20 01:28:46;;;;;;;50.72;33.42;;;;;;;5.70;62.96;99924.66;5093722;28;20039;-52
2022/01/20 01:33:51;;;;;;;50.25;32.45;;;;;;;5.63;63.10;99920.97;5092722;28;20421;-50
2022/01/20 01:36:20;;;;;;;51.40;33.13;;;;;;;5.65;62.88;99919.03;5092991;28;20086;-51
2022/01/20 01:38:47;;;;;;;59.72;33.22;;;;;;;5.71;63.25;99920.28;5093104;28;20465;-50
2022/01/20 01:41:18;;;;;;;47.75;29.73;;;;;;;5.79;63.50;99923.84;5093168;28;20099;-51
2022/01/20 01:43:48;;;;;;;48.40;30.88;;;;;;;5.86;63.11;99921.50;5093219;28;20107;-51
2022/01/20 01:46:15;;;;;;;49.50;30.92;;;;;;;5.77;62.58;99925.75;5093081;28;20028;-51
2022/01/20 01:48:43;;;;;;;52.53;32.20;;;;;;;5.77;63.56;99920.53;5093130;28;20111;-50
2022/01/20 01:51:10;;;;;;;45.30;31.77;;;;;;;5.69;62.66;99917.81;5093255;28;20032;-50
2022/01/20 01:53:38;;;;;;;47.22;32.75;;;;;;;5.62;62.65;99914.13;5091639;28;20477;-50
2022/01/20 01:56:05;;;;;;;46.78;30.35;;;;;;;5.63;63.35;99920.13;5092873;28;20027;-51
2022/01/20 01:58:31;;;;;;;51.63;33.55;;;;;;;5.63;62.88;99915.75;5092746;28;20027;-50
2022/01/20 02:00:57;;;;;;;50.90;36.70;;;;;;;5.48;63.14;99917.16;5092800;28;20024;-51
2022/01/20 02:03:24;;;;;;;50.53;34.00;;;;;;;5.24;63.48;99905.34;5091399;28;20525;-51
2022/01/20 02:19:06;;;;;;;42.10;29.35;;;;;;;4.92;64.30;99889.97;5092446;28;20093;-50
2022/01/20 02:21:32;;;;;;;46.67;29.92;;;;;;;4.72;64.92;99892.50;5092423;28;20016;-51
2022/01/20 02:23:58;;;;;;;43.42;27.80;;;;;;;4.62;65.14;99888.25;5092416;28;20099;-49
2022/01/20 02:26:23;;;;;;;43.10;29.67;;;;;;;4.59;65.27;99889.34;5091007;28;20409;-51
2022/01/20 02:28:49;;;;;;;50.45;31.63;;;;;;;4.69;65.60;99887.59;5092334;28;20082;-50
2022/01/20 02:31:15;;;;;;;52.58;30.27;;;;;;;4.86;65.23;99885.28;5092194;28;20497;-51
2022/01/20 02:33:41;;;;;;;46.15;27.45;;;;;;;5.06;65.19;99888.75;5090950;28;20028;-50
2022/01/20 02:36:12;;;;;;;43.15;27.90;;;;;;;5.21;64.67;99887.38;5091926;28;20039;-50
2022/01/20 02:38:50;;;;;;;40.83;28.42;;;;;;;5.35;64.91;99883.56;5090844;28;20493;-51
2022/01/20 02:46:44;;;;;;;50.20;29.17;;;;;;;5.25;64.32;99877.53;5092308;28;20092;-51
2022/01/20 02:49:14;;;;;;;43.72;28.95;;;;;;;5.27;64.35;99876.44;5090682;28;20024;-51
2022/01/20 02:51:47;;;;;;;42.42;27.48;;;;;;;5.23;64.00;99872.44;5091986;28;20069;-51
2022/01/20 02:54:13;;;;;;;40.60;26.80;;;;;;;5.20;64.32;99877.94;5090637;28;20561;-50
2022/01/20 02:56:39;;;;;;;38.75;26.13;;;;;;;5.31;63.88;99876.97;5091914;28;20106;-50
2022/01/20 02:59:04;;;;;;;47.50;26.10;;;;;;;5.46;64.07;99880.00;5091770;28;20031;-51
2022/01/20 03:01:32;;;;;;;39.88;27.63;;;;;;;5.53;63.50;99879.31;5090496;28;20145;-52
2022/01/20 03:03:58;;;;;;;38.38;26.58;;;;;;;5.48;63.32;99883.28;5090537;28;20024;-49
2022/01/20 03:06:24;;;;;;;46.53;32.03;;;;;;;5.33;63.72;99882.88;5091845;28;20035;-51
2022/01/20 03:08:50;;;;;;;55.60;36.85;;;;;;;5.30;63.91;99888.38;5091820;28;20503;-51
2022/01/20 03:11:15;;;;;;;42.38;27.30;;;;;;;5.37;63.76;99881.63;5090406;28;20028;-50
2022/01/20 03:13:41;;;;;;;37.38;25.98;;;;;;;5.41;63.46;99883.00;5090400;28;20017;-50
2022/01/20 03:16:07;;;;;;;51.80;39.88;;;;;;;5.25;63.59;99883.56;5091744;28;20051;-50
2022/01/20 03:18:33;;;;;;;35.30;25.38;;;;;;;5.17;64.27;99886.84;5090312;28;20020;-52
2022/01/20 03:20:58;;;;;;;40.90;25.33;;;;;;;5.16;64.24;99884.38;5091685;28;20032;-50
2022/01/20 03:23:24;;;;;;;40.42;26.33;;;;;;;5.30;64.66;99883.97;5090358;28;20099;-51
2022/01/20 03:25:50;;;;;;;41.65;25.45;;;;;;;5.42;63.95;99884.66;5091611;28;20017;-50
2022/01/20 03:28:15;;;;;;;43.08;27.63;;;;;;;5.48;63.27;99881.50;5090266;28;20077;-50
2022/01/20 03:30:41;;;;;;;39.40;28.40;;;;;;;5.54;63.76;99880.94;5090262;28;20142;-51
2022/01/20 03:33:07;;;;;;;44.67;29.85;;;;;;;5.59;63.27;99872.72;5090201;28;20055;-51
2022/01/20 03:35:33;;;;;;;47.13;30.08;;;;;;;5.53;63.62;99874.13;5089991;28;20043;-50
2022/01/20 03:37:59;;;;;;;48.08;29.88;;;;;;;5.65;63.56;99884.38;5090072;28;20047;-52
2022/01/20 03:40:24;;;;;;;47.53;30.77;;;;;;;5.73;63.39;99881.88;5090149;28;20118;-51
2022/01/20 03:42:50;;;;;;;47.90;31.52;;;;;;;5.87;63.44;99872.81;5091521;28;20039;-51
2022/01/20 03:45:16;;;;;;;50.47;30.50;;;;;;;5.91;63.17;99868.97;5091440;28;20028;-51
2022/01/20 03:47:42;;;;;;;51.90;32.78;;;;;;;5.95;62.80;99881.59;5091455;28;20525;-50
2022/01/20 03:50:59;;;;;;;44.53;31.02;;;;;;;6.05;62.57;99878.97;5091416;28;20027;-51
2022/01/20 03:52:54;;;;;;;49.60;31.67;;;;;;;6.07;62.34;99858.81;5091206;28;20039;-50
2022/01/20 03:55:20;;;;;;;46.88;31.88;;;;;;;6.04;62.27;99863.47;5092233;28;20020;-51
2022/01/20 03:57:46;;;;;;;50.25;34.13;;;;;;;5.88;62.32;99859.66;5093773;28;20028;-51
2022/01/20 04:00:12;;;;;;;50.90;35.95;;;;;;;5.82;63.22;99846.38;5095059;28;20027;-50
2022/01/20 04:02:37;;;;;;;44.65;31.15;;;;;;;5.76;63.48;99853.78;5095085;28;20020;-50
2022/01/20 04:05:03;;;;;;;46.58;30.58;;;;;;;5.78;63.20;99849.25;5095017;28;20024;-50
2022/01/20 04:07:29;;;;;;;47.10;30.67;;;;;;;5.80;63.61;99849.94;5094985;28;20083;-51
2022/01/20 04:09:55;;;;;;;52.58;31.85;;;;;;;5.75;62.98;99859.13;5094966;28;20020;-51
2022/01/20 04:12:21;;;;;;;41.83;30.90;;;;;;;5.70;63.38;99853.53;5093547;28;20039;-50
2022/01/20 04:14:48;;;;;;;68.55;50.25;;;;;;;5.74;64.14;99853.09;5094863;28;20028;-50
2022/01/20 04:17:19;;;;;;;45.47;31.55;;;;;;;5.77;63.43;99852.81;5094652;28;20481;-50
2022/01/20 04:19:45;;;;;;;38.90;28.23;;;;;;;5.80;63.50;99859.53;5093509;28;20038;-51
2022/01/20 04:22:11;;;;;;;40.67;25.58;;;;;;;5.74;62.99;99858.31;5093358;28;20058;-51
2022/01/20 04:24:37;;;;;;;33.30;23.00;;;;;;;5.64;63.99;99852.31;5093415;28;20055;-51
2022/01/20 04:27:04;;;;;;;38.30;25.70;;;;;;;5.58;63.07;99851.06;5094619;28;20074;-51
2022/01/20 04:29:29;;;;;;;37.60;25.35;;;;;;;5.38;63.54;99847.66;5110296;28;20043;-50
2022/01/20 04:31:56;;;;;;;39.58;25.15;;;;;;;5.47;64.60;99855.59;5093121;28;20541;-50
2022/01/20 04:34:22;;;;;;;44.00;27.10;;;;;;;5.57;63.87;99856.41;5093172;28;20107;-50
2022/01/20 04:36:50;;;;;;;49.85;25.17;;;;;;;5.42;63.93;99850.81;5094205;28;20540;-50
2022/01/20 04:39:23;;;;;;;50.67;27.73;;;;;;;5.49;64.51;99851.06;5094278;28;20024;-51
2022/01/20 04:41:51;;;;;;;39.00;24.58;;;;;;;5.64;64.49;99854.91;5094358;28;20024;-51
2022/01/20 04:44:30;;;;;;;52.58;27.55;;;;;;;5.74;64.52;99847.91;5094262;28;20024;-51
2022/01/20 04:47:08;;;;;;;52.33;27.63;;;;;;;5.87;64.93;99847.56;5094232;28;20485;-50
2022/01/20 04:57:46;;;;;;;53.65;35.08;;;;;;;5.79;65.15;99848.31;5094241;28;20062;-51
2022/01/20 05:00:12;;;;;;;42.60;22.58;;;;;;;5.69;65.71;99847.47;5093975;28;20443;-50
2022/01/20 05:02:38;;;;;;;41.42;21.88;;;;;;;5.66;65.56;99847.78;5092630;28;20024;-50
2022/01/20 05:05:07;;;;;;;36.00;20.55;;;;;;;5.70;65.19;99846.53;5093818;28;20051;-50
2022/01/20 05:07:33;;;;;;;46.20;25.52;;;;;;;5.82;65.01;99844.59;5091555;28;20498;-50
2022/01/20 05:09:59;;;;;;;36.50;21.40;;;;;;;5.91;64.43;99837.69;5092434;28;20077;-51
2022/01/20 05:12:40;;;;;;;29.58;20.00;;;;;;;5.97;64.29;99845.78;5092415;28;20090;-50
2022/01/20 05:15:06;;;;;;;35.60;27.25;;;;;;;6.00;63.93;99844.72;5093713;28;20494;-51
2022/01/20 05:17:31;;;;;;;44.22;23.38;;;;;;;6.04;63.32;99846.06;5093617;28;20481;-51
2022/01/20 05:19:57;;;;;;;34.08;19.73;;;;;;;6.13;63.79;99842.59;5092194;28;20024;-50
2022/01/20 05:22:23;;;;;;;32.72;19.27;;;;;;;6.23;62.84;99833.94;5093531;28;20486;-50
2022/01/20 05:24:48;;;;;;;30.58;20.67;;;;;;;6.26;62.86;99837.06;5093506;28;20103;-50
2022/01/20 05:27:14;;;;;;;27.70;17.73;;;;;;;6.30;63.14;99848.00;5093441;28;20031;-51
2022/01/20 05:29:40;;;;;;;34.05;18.13;;;;;;;6.34;62.46;99847.59;5093441;28;20024;-51
2022/01/20 05:32:06;;;;;;;30.90;17.67;;;;;;;6.46;62.36;99836.97;5093322;28;20021;-51
2022/01/20 05:34:31;;;;;;;27.23;16.77;;;;;;;6.53;62.72;99844.06;5093104;28;20028;-50
2022/01/20 05:36:57;;;;;;;26.23;16.27;;;;;;;6.55;61.73;99842.13;5093264;28;20038;-51
2022/01/20 05:39:24;;;;;;;36.75;23.35;;;;;;;6.60;62.22;99839.09;5091793;28;20118;-49
2022/01/20 05:41:50;;;;;;;27.25;17.40;;;;;;;6.63;61.55;99837.97;5093124;28;20024;-50
2022/01/20 05:44:16;;;;;;;39.60;17.90;;;;;;;6.65;62.07;99847.28;5091821;28;20028;-50
2022/01/20 05:46:47;;;;;;;27.10;15.75;;;;;;;6.67;61.61;99849.78;5093092;28;20509;-52
2022/01/20 05:49:20;;;;;;;62.33;20.75;;;;;;;6.69;61.22;99866.09;5093114;28;20043;-51
2022/01/20 05:51:52;;;;;;;41.13;17.10;;;;;;;6.74;61.65;99861.25;5093062;28;20031;-51
2022/01/20 05:54:19;;;;;;;65.05;17.67;;;;;;;6.76;61.16;99860.16;5093045;28;20032;-50
2022/01/20 05:56:44;;;;;;;55.28;18.05;;;;;;;6.68;61.18;99861.81;5091556;28;20020;-51
2022/01/20 05:59:11;;;;;;;45.65;26.73;;;;;;;6.65;61.00;99867.34;5092818;28;20489;-51
2022/01/20 06:01:38;;;;;;;38.00;19.33;;;;;;;6.62;62.27;99863.25;5092749;28;20035;-51
2022/01/20 06:04:05;;;;;;;51.63;19.25;;;;;;;6.59;62.13;99866.13;5092752;28;20027;-50
2022/01/20 06:06:32;;;;;;;31.35;16.17;;;;;;;6.63;61.79;99862.28;5092717;28;20052;-50
2022/01/20 06:08:58;;;;;;;32.92;16.63;;;;;;;6.60;62.18;99860.78;5092692;28;20051;-50
2022/01/20 06:11:23;;;;;;;36.42;17.55;;;;;;;6.59;62.18;99863.53;5092579;28;20074;-51
2022/01/20 06:13:49;;;;;;;26.92;15.77;;;;;;;6.62;61.80;99863.25;5092565;28;20023;-51
2022/01/20 06:16:15;;;;;;;29.83;15.70;;;;;;;6.65;61.97;99867.34;5092510;28;20046;-51
2022/01/20 06:18:41;;;;;;;28.80;15.20;;;;;;;6.69;61.60;99866.91;5092323;28;20394;-50
2022/01/20 06:21:07;;;;;;;27.02;14.55;;;;;;;6.79;61.46;99867.66;5091117;28;20060;-50
2022/01/20 06:23:34;;;;;;;32.50;16.20;;;;;;;6.86;61.52;99872.28;5092441;28;20020;-50
2022/01/20 06:26:05;;;;;;;28.42;14.55;;;;;;;6.89;60.66;99872.84;5090992;28;20111;-50
2022/01/20 06:28:36;;;;;;;28.38;14.30;;;;;;;6.87;60.81;99858.28;5091113;28;20051;-50
2022/01/20 06:31:03;;;;;;;29.88;18.05;;;;;;;6.90;60.52;99869.28;5091003;28;20402;-51
2022/01/20 06:33:29;;;;;;;25.92;14.65;;;;;;;6.91;60.71;99864.88;5092339;28;20035;-51
2022/01/20 06:35:55;;;;;;;27.35;14.82;;;;;;;6.92;60.43;99864.72;5090645;28;20048;-51
2022/01/20 06:38:22;;;;;;;31.48;15.15;;;;;;;6.92;60.35;99864.72;5090852;28;20026;-51
2022/01/20 06:40:48;;;;;;;26.45;16.60;;;;;;;6.88;60.42;99857.31;5090869;28;20498;-50
2022/01/20 06:43:14;;;;;;;23.08;15.20;;;;;;;6.85;60.03;99855.00;5092210;28;20020;-50
2022/01/20 06:45:40;;;;;;;26.05;15.48;;;;;;;6.84;60.20;99861.19;5092071;28;20024;-51
2022/01/20 06:48:06;;;;;;;24.05;15.30;;;;;;;6.80;60.14;99865.88;5090723;28;20039;-51
2022/01/20 06:50:32;;;;;;;22.05;14.73;;;;;;;6.78;60.60;99859.97;5090757;28;20073;-51
2022/01/20 06:52:58;;;;;;;24.08;15.88;;;;;;;6.79;60.17;99854.63;5090677;28;20797;-50
2022/01/20 06:55:24;;;;;;;18.90;15.15;;;;;;;6.81;60.43;99846.66;5090655;28;20120;-51
2022/01/20 06:57:49;;;;;;;22.30;15.82;;;;;;;6.91;60.16;99846.59;5091876;28;20444;-50
2022/01/20 07:00:18;;;;;;;35.30;17.33;;;;;;;6.97;60.22;99844.22;5091902;28;20024;-50
2022/01/20 07:02:45;;;;;;;27.05;17.33;;;;;;;7.00;61.94;99848.31;5091906;28;20012;-51
2022/01/20 07:05:13;;;;;;;25.60;18.75;;;;;;;6.84;62.95;99840.31;5091887;28;20061;-51
2022/01/20 07:07:39;;;;;;;26.63;18.73;;;;;;;6.65;63.86;99838.66;5091792;28;20039;-51
2022/01/20 07:10:06;;;;;;;25.90;18.95;;;;;;;6.46;64.55;99847.38;5091814;28;20069;-50
2022/01/20 07:12:32;;;;;;;23.85;17.75;;;;;;;6.28;64.46;99848.19;5090518;28;20035;-50
2022/01/20 07:14:58;;;;;;;22.30;16.20;;;;;;;6.15;64.98;99845.06;5091791;28;20406;-51
2022/01/20 07:17:24;;;;;;;21.88;16.35;;;;;;;6.14;64.29;99856.47;5091666;28;20435;-51
2022/01/20 07:19:50;;;;;;;23.67;16.20;;;;;;;6.15;64.21;99863.31;5091754;28;20405;-50
2022/01/20 07:22:16;;;;;;;26.15;17.58;;;;;;;6.15;64.21;99861.50;5090422;28;20028;-51
2022/01/20 07:24:42;;;;;;;21.95;16.90;;;;;;;6.22;64.09;99859.19;5091654;28;20028;-51
2022/01/20 07:27:08;;;;;;;22.48;17.10;;;;;;;6.27;63.83;99869.97;5090310;28;20065;-52
2022/01/20 07:29:35;;;;;;;23.00;14.90;;;;;;;6.37;63.23;99864.72;5090317;28;20032;-50
2022/01/20 07:32:03;;;;;;;29.13;14.75;;;;;;;6.46;63.08;99871.69;5094036;28;20027;-51
2022/01/20 07:34:30;;;;;;;21.10;14.93;;;;;;;6.51;63.25;99868.66;5095494;28;20036;-50
2022/01/20 07:36:56;;;;;;;21.70;14.90;;;;;;;6.52;63.30;99863.31;5094220;28;20028;-50
2022/01/20 07:39:22;;;;;;;22.52;15.57;;;;;;;6.52;62.71;99860.69;5095494;28;20016;-52
2022/01/20 07:41:48;;;;;;;21.25;15.23;;;;;;;6.51;63.28;99863.44;5095506;28;20052;-51
2022/01/20 07:44:17;;;;;;;18.58;14.50;;;;;;;6.49;63.22;99863.56;5095522;28;20058;-50
2022/01/20 07:46:44;;;;;;;22.58;15.40;;;;;;;6.48;63.22;99866.31;5095390;28;20524;-51
2022/01/20 07:49:10;;;;;;;23.05;15.20;;;;;;;6.49;62.46;99860.97;5095461;28;20465;-51
2022/01/20 07:51:36;;;;;;;20.77;14.95;;;;;;;6.53;63.10;99857.09;5094018;28;20077;-51
2022/01/20 07:54:01;;;;;;;18.98;15.07;;;;;;;6.57;63.23;99855.84;5095271;28;20509;-51
2022/01/20 07:56:27;;;;;;;20.67;13.60;;;;;;;6.67;63.18;99850.56;5095258;28;20020;-52
2022/01/20 07:58:53;;;;;;;21.08;14.38;;;;;;;6.93;62.22;99847.28;5093759;28;20367;-50
2022/01/20 08:01:22;;;;;;;20.63;13.70;;;;;;;7.18;62.21;99856.97;5095154;28;20028;-51
2022/01/20 08:03:48;;;;;;;20.30;14.05;;;;;;;7.39;61.13;99841.00;5093783;28;20016;-50
2022/01/20 08:06:14;;;;;;;21.40;16.42;;;;;;;7.58;60.73;99850.44;5093728;28;20425;-51
2022/01/20 08:08:40;;;;;;;21.85;15.05;;;;;;;7.77;60.49;99853.84;5095252;28;20051;-51
2022/01/20 08:11:05;;;;;;;20.35;14.07;;;;;;;7.90;60.55;99849.00;5093635;28;20429;-48
2022/01/20 08:13:31;;;;;;;21.33;13.80;;;;;;;8.02;59.90;99848.75;5093587;28;20020;-51
2022/01/20 08:15:57;;;;;;;22.55;14.25;;;;;;;8.12;59.67;99846.84;5093494;28;20028;-50
2022/01/20 08:18:22;;;;;;;16.60;12.95;;;;;;;8.22;59.57;99839.72;5093413;28;20489;-51
2022/01/20 08:20:48;;;;;;;19.85;12.50;;;;;;;8.25;59.51;99834.19;5095019;28;20027;-51
2022/01/20 08:23:14;;;;;;;16.48;12.55;;;;;;;8.29;59.19;99840.75;5093328;28;20028;-51
2022/01/20 08:25:40;;;;;;;18.50;12.32;;;;;;;8.34;59.07;99851.53;5094622;28;20119;-50
2022/01/20 08:28:06;;;;;;;19.50;11.80;;;;;;;8.35;59.54;99844.50;5093340;28;20032;-51
2022/01/20 08:30:31;;;;;;;17.15;12.48;;;;;;;8.43;58.99;99848.97;5093259;28;20028;-50
2022/01/20 08:32:59;;;;;;;18.70;12.43;;;;;;;8.55;58.99;99858.19;5093222;28;20020;-51
2022/01/20 08:35:27;;;;;;;21.05;12.95;;;;;;;8.63;58.95;99854.78;5092969;28;20032;-51
2022/01/20 08:37:53;;;;;;;169.07;150.85;;;;;;;8.74;58.33;99846.66;5094327;28;20056;-52
2022/01/20 08:40:24;;;;;;;556.80;492.17;;;;;;;8.83;58.36;99857.94;5094338;28;20461;-52
2022/01/20 08:42:52;;;;;;;137.98;123.20;;;;;;;8.86;58.21;99849.78;5092973;28;20056;-50
2022/01/20 08:45:21;;;;;;;54.72;44.38;;;;;;;8.94;58.25;99857.66;5094285;28;20024;-51
2022/01/20 08:47:51;;;;;;;43.33;35.25;;;;;;;9.04;58.08;99860.13;5094222;28;20032;-51
2022/01/20 08:50:18;;;;;;;27.65;20.40;;;;;;;9.02;58.24;99862.09;5092896;28;20456;-51
2022/01/20 08:52:43;;;;;;;24.77;18.33;;;;;;;8.94;58.87;99866.31;5094196;28;20398;-52
2022/01/20 08:55:09;;;;;;;23.63;16.55;;;;;;;8.94;58.79;99868.13;5092739;28;20034;-51
2022/01/20 08:57:35;;;;;;;24.50;17.02;;;;;;;8.75;58.38;99883.13;5093862;28;20036;-52
2022/01/20 09:00:03;;;;;;;26.25;15.68;;;;;;;8.63;58.76;99888.78;5094015;28;20095;-51
2022/01/20 09:02:30;;;;;;;40.95;16.98;;;;;;;8.40;58.85;99882.28;5094005;28;20036;-52
2022/01/20 09:04:56;;;;;;;20.45;14.70;;;;;;;8.47;59.42;99882.53;5093935;28;20031;-52
2022/01/20 09:07:22;;;;;;;27.88;15.25;;;;;;;8.68;59.12;99891.78;5093820;28;20024;-52
2022/01/20 09:09:49;;;;;;;28.42;16.35;;;;;;;8.66;59.27;99891.94;5092496;28;20024;-52
2022/01/20 09:17:49;;;;;;;78.40;30.80;;;;;;;8.92;60.65;99886.59;5093847;28;20062;-51
2022/01/20 09:20:14;;;;;;;299.27;106.30;;;;;;;9.06;63.91;99884.34;5093596;28;20060;-52
2022/01/20 09:22:40;;;;;;;119.15;49.28;;;;;;;9.33;64.08;99884.03;5092183;28;20028;-49
2022/01/20 09:25:08;;;;;;;138.52;59.33;;;;;;;9.50;66.01;99882.28;5093442;28;20024;-48
2022/01/20 09:27:34;;;;;;;87.20;38.03;;;;;;;9.54;65.81;99888.00;5092135;28;20052;-48
2022/01/20 09:30:04;;;;;;;31.50;18.92;;;;;;;9.46;63.90;99893.25;5093425;28;20055;-49
2022/01/20 09:32:33;;;;;;;30.13;16.40;;;;;;;9.32;62.33;99899.94;5092128;28;20051;-49
2022/01/20 09:34:59;;;;;;;30.65;16.05;;;;;;;9.09;61.71;99894.50;5093147;28;20102;-49
2022/01/20 09:37:25;;;;;;;36.55;16.42;;;;;;;8.98;60.75;99903.47;5093287;28;20034;-48
2022/01/20 09:39:51;;;;;;;26.45;15.13;;;;;;;8.79;59.77;99894.94;5091916;28;20024;-48
2022/01/20 09:42:18;;;;;;;25.00;14.23;;;;;;;8.74;60.03;99893.75;5093232;28;20030;-48
2022/01/20 09:44:46;;;;;;;23.58;12.80;;;;;;;8.71;59.56;99879.19;5093167;28;20130;-49
2022/01/20 09:47:12;;;;;;;23.63;13.00;;;;;;;8.73;59.06;99886.88;5093063;28;20516;-51
2022/01/20 09:49:38;;;;;;;22.42;15.20;;;;;;;8.77;59.25;99877.72;5091745;28;20077;-52
2022/01/20 09:52:05;;;;;;;19.17;13.65;;;;;;;8.83;59.02;99878.88;5093069;28;20436;-51
2022/01/20 09:54:31;;;;;;;20.15;13.75;;;;;;;8.76;58.61;99882.13;5092714;28;20020;-51
2022/01/20 09:56:58;;;;;;;20.17;12.82;;;;;;;8.69;59.03;99883.78;5092963;28;20077;-52
2022/01/20 09:59:24;;;;;;;22.00;13.10;;;;;;;8.65;58.59;99879.00;5093134;28;20031;-51
2022/01/20 10:01:56;;;;;;;23.08;12.95;;;;;;;8.66;58.55;99885.88;5092810;28;20069;-51
2022/01/20 10:04:25;;;;;;;21.63;12.77;;;;;;;8.52;58.05;99895.94;5092807;28;20119;-50
2022/01/20 10:07:12;;;;;;;32.03;14.13;;;;;;;8.16;58.86;99903.91;5091397;28;20020;-51
2022/01/20 10:09:45;;;;;;;19.63;13.35;;;;;;;8.01;60.01;99913.31;5091356;28;20027;-51
2022/01/20 10:12:17;;;;;;;19.23;12.52;;;;;;;8.16;59.49;99908.31;5092697;28;20031;-51
2022/01/20 10:14:49;;;;;;;20.38;14.55;;;;;;;8.39;58.90;99917.28;5092627;28;20050;-51
2022/01/20 10:17:29;;;;;;;22.83;16.38;;;;;;;8.52;58.54;99922.13;5092542;28;20047;-50
2022/01/20 10:20:04;;;;;;;28.13;17.23;;;;;;;8.65;58.77;99920.84;5092574;28;20024;-51
2022/01/20 10:22:33;;;;;;;24.42;12.55;;;;;;;8.71;58.01;99923.69;5092483;28;20032;-51
2022/01/20 10:25:05;;;;;;;31.55;14.27;;;;;;;8.73;58.22;99924.34;5092457;28;20024;-51
2022/01/20 10:27:34;;;;;;;20.88;11.25;;;;;;;8.73;58.14;99926.97;5092351;28;20039;-51
2022/01/20 10:30:09;;;;;;;16.10;10.60;;;;;;;8.81;57.79;99926.16;5090987;28;20465;-51
2022/01/20 10:32:40;;;;;;;19.10;10.23;;;;;;;8.67;58.15;99930.22;5092354;28;20062;-51
2022/01/20 10:35:07;;;;;;;16.27;10.45;;;;;;;8.69;58.51;99923.03;5092006;28;20044;-52
2022/01/20 10:37:33;;;;;;;16.85;10.95;;;;;;;8.69;57.81;99922.19;5092458;28;20024;-50
2022/01/20 10:40:09;;;;;;;21.23;11.52;;;;;;;8.67;58.52;99922.38;5092221;28;20032;-51
2022/01/20 10:42:44;;;;;;;22.17;10.63;;;;;;;8.68;58.54;99916.13;5092185;28;20020;-50
2022/01/20 10:45:30;;;;;;;21.47;11.13;;;;;;;8.71;58.51;99920.22;5092233;28;20111;-51
2022/01/20 10:47:58;;;;;;;20.92;11.65;;;;;;;8.90;58.66;99930.44;5090797;28;20145;-51
2022/01/20 10:50:36;;;;;;;19.67;14.68;;;;;;;8.83;57.65;99915.53;5090709;28;20066;-51
2022/01/20 10:53:02;;;;;;;25.38;11.75;;;;;;;8.49;58.34;99909.38;5090782;28;20032;-51
2022/01/20 10:55:34;;;;;;;17.90;10.77;;;;;;;8.49;59.22;99905.91;5090679;28;20490;-51
2022/01/20 10:58:13;;;;;;;19.20;10.43;;;;;;;8.65;59.03;99905.16;5091887;28;20024;-51
2022/01/20 11:00:47;;;;;;;18.80;10.65;;;;;;;8.82;58.14;99893.78;5091931;28;20081;-50
2022/01/20 11:03:14;;;;;;;17.83;10.43;;;;;;;8.85;58.78;99897.88;5091958;28;20036;-51
2022/01/20 11:05:41;;;;;;;20.75;10.38;;;;;;;8.86;58.45;99895.09;5089620;28;20028;-51
2022/01/20 11:08:08;;;;;;;19.42;13.70;;;;;;;8.89;58.39;99896.56;5090549;28;20028;-51
2022/01/20 11:10:34;;;;;;;17.23;10.23;;;;;;;8.90;57.86;99899.03;5091825;28;20486;-51
2022/01/20 11:13:00;;;;;;;21.52;11.00;;;;;;;8.77;58.40;99893.41;5090424;28;20028;-51
2022/01/20 11:15:28;;;;;;;54.58;39.47;;;;;;;8.78;59.19;99885.41;5091743;28;20024;-52
2022/01/20 11:17:56;;;;;;;50.35;43.97;;;;;;;8.70;58.79;99881.97;5091719;28;20016;-51
2022/01/20 11:20:27;;;;;;;46.08;33.03;;;;;;;8.70;59.53;99876.72;5091749;28;20027;-51
2022/01/20 11:23:03;;;;;;;19.50;13.30;;;;;;;8.71;59.33;99865.28;5091784;28;20050;-50
2022/01/20 11:25:29;;;;;;;;;;;;;;;8.82;59.26;99872.03;5092211;28;20020;-52
2022/01/20 11:28:09;;;;;;;21.52;12.38;;;;;;;8.96;58.44;99871.41;5090487;28;19930;-52
2022/01/20 11:30:42;;;;;;;14.95;8.93;;;;;;;8.99;58.16;99874.53;5090448;28;20024;-51
2022/01/20 11:33:11;;;;;;;12.40;8.50;;;;;;;8.91;58.53;99871.88;5091703;28;20032;-50
2022/01/20 11:35:54;;;;;;;18.10;10.50;;;;;;;8.89;58.47;99870.41;5090059;28;20042;-51
2022/01/20 11:38:22;;;;;;;14.68;9.35;;;;;;;8.92;58.45;99863.03;5091537;28;20036;-51
2022/01/20 11:40:50;;;;;;;16.13;8.98;;;;;;;9.16;57.81;99854.41;5091598;28;20077;-50
2022/01/20 11:43:16;;;;;;;18.50;9.77;;;;;;;9.33;57.24;99855.22;5091599;28;20028;-52
2022/01/20 11:45:50;;;;;;;14.50;9.45;;;;;;;9.40;57.08;99847.56;5090216;28;20044;-50
2022/01/20 11:48:24;;;;;;;17.35;10.00;;;;;;;9.58;56.65;99855.25;5091593;28;20458;-51
2022/01/20 11:51:09;;;;;;;15.93;9.43;;;;;;;9.51;56.29;99856.88;5090115;28;20593;-51
2022/01/20 11:53:41;;;;;;;14.85;8.82;;;;;;;9.53;56.40;99849.66;5091450;28;20025;-52
2022/01/20 11:56:09;;;;;;;14.63;9.73;;;;;;;9.56;56.33;99844.13;5090128;28;20428;-50
2022/01/20 11:58:35;;;;;;;16.45;8.80;;;;;;;9.61;55.81;99841.81;5091337;28;20486;-50
2022/01/20 12:01:03;;;;;;;12.63;8.88;;;;;;;9.58;56.03;99844.78;5091352;28;20019;-49
2022/01/20 12:03:30;;;;;;;13.25;8.73;;;;;;;9.55;56.21;99842.47;5091358;28;20053;-51
2022/01/20 12:06:04;;;;;;;13.35;8.00;;;;;;;9.58;55.64;99840.34;5090021;28;20031;-51
2022/01/20 12:08:31;;;;;;;14.05;7.22;;;;;;;9.62;55.47;99834.75;5091326;28;20040;-50
2022/01/20 12:10:59;;;;;;;15.77;9.02;;;;;;;9.56;55.45;99842.31;5091227;28;20605;-51
2022/01/20 12:13:25;;;;;;;28.60;25.23;;;;;;;9.51;55.60;99830.69;5089924;28;20560;-51
2022/01/20 12:15:53;;;;;;;18.70;13.35;;;;;;;9.41;55.48;99822.97;5089996;28;20024;-50
2022/01/20 12:18:19;;;;;;;11.43;7.20;;;;;;;9.34;55.54;99827.25;5094747;28;20020;-51
2022/01/20 12:20:46;;;;;;;12.48;8.15;;;;;;;9.31;55.39;99817.09;5094807;28;20045;-51
2022/01/20 12:23:12;;;;;;;13.93;8.00;;;;;;;9.29;56.00;99808.56;5093503;28;20027;-50
2022/01/20 12:25:38;;;;;;;14.18;8.23;;;;;;;9.30;55.52;99805.00;5094679;28;20020;-50
2022/01/20 12:28:07;;;;;;;12.68;7.72;;;;;;;9.40;55.36;99805.63;5093365;28;20034;-51
2022/01/20 12:30:36;;;;;;;17.42;12.55;;;;;;;9.39;54.83;99798.75;5094611;28;20029;-50
2022/01/20 12:33:11;;;;;;;67.57;60.35;;;;;;;9.24;54.94;99814.31;5094581;28;20501;-50
2022/01/20 12:35:42;;;;;;;27.35;24.10;;;;;;;9.37;55.50;99813.81;5094296;28;20089;-51